sensor_id;sensor_type;location;lat;lon;timestamp;temperature;humidity
9790;DHT22;4934;50.852;8.098;2024-01-11T00:01:26;-7.90;99.90
9790;DHT22;4934;50.852;8.098;2024-01-11T00:03:52;-7.90;99.90
9790;DHT22;4934;50.852;8.098;2024-01-11T00:06:17;-7.90;99.90
9790;DHT22;4934;50.852;8.098;2024-01-11T00:08:43;-7.90;99.90
9790;DHT22;4934;50.852;8.098;2024-01-11T00:11:09;-8.00;99.90
9790;DHT22;4934;50.852;8.098;2024-01-11T00:13:34;-8.00;99.90
9790;DHT22;4934;50.852;8.098;2024-01-11T00:16:00;-8.00;99.90
9790;DHT22;4934;50.852;8.098;2024-01-11T00:18:25;-8.00;99.90
9790;DHT22;4934;50.852;8.098;2024-01-11T00:20:51;-8.00;99.90
9790;DHT22;4934;50.852;8.098;2024-01-11T00:23:17;-8.10;99.90
9790;DHT22;4934;50.852;8.098;2024-01-11T00:25:42;-8.10;99.90
9790;DHT22;4934;50.852;8.098;2024-01-11T00:28:08;-8.20;99.90
9790;DHT22;4934;50.852;8.098;2024-01-11T00:30:33;-8.20;99.90
9790;DHT22;4934;50.852;8.098;2024-01-11T00:32:59;-8.20;99.90
9790;DHT22;4934;50.852;8.098;2024-01-11T00:35:25;-8.20;99.90
9790;DHT22;4934;50.852;8.098;2024-01-11T00:37:50;-8.20;99.90
9790;DHT22;4934;50.852;8.098;2024-01-11T00:40:16;-8.20;99.90
9790;DHT22;4934;50.852;8.098;2024-01-11T00:42:41;-8.20;99.90
9790;DHT22;4934;50.852;8.098;2024-01-11T00:45:07;-8.30;99.90
9790;DHT22;4934;50.852;8.098;2024-01-11T00:47:34;-8.10;99.90
9790;DHT22;4934;50.852;8.098;2024-01-11T00:50:00;-8.00;99.90
9790;DHT22;4934;50.852;8.098;2024-01-11T00:52:25;-7.80;99.90
9790;DHT22;4934;50.852;8.098;2024-01-11T00:54:51;-7.90;99.90
9790;DHT22;4934;50.852;8.098;2024-01-11T00:57:16;-8.00;99.90
9790;DHT22;4934;50.852;8.098;2024-01-11T00:59:42;-8.10;99.90
9790;DHT22;4934;50.852;8.098;2024-01-11T01:02:07;-8.20;99.90
9790;DHT22;4934;50.852;8.098;2024-01-11T01:04:34;-8.30;99.90
9790;DHT22;4934;50.852;8.098;2024-01-11T01:07:02;-8.30;99.90
9790;DHT22;4934;50.852;8.098;2024-01-11T01:09:28;-8.10;99.90
9790;DHT22;4934;50.852;8.098;2024-01-11T01:11:53;-8.00;99.90
9790;DHT22;4934;50.852;8.098;2024-01-11T01:14:19;-8.00;99.90
9790;DHT22;4934;50.852;8.098;2024-01-11T01:16:44;-8.20;99.90
9790;DHT22;4934;50.852;8.098;2024-01-11T01:19:10;-8.20;99.90
9790;DHT22;4934;50.852;8.098;2024-01-11T01:21:36;-8.20;99.90
9790;DHT22;4934;50.852;8.098;2024-01-11T01:24:02;-8.20;99.90
9790;DHT22;4934;50.852;8.098;2024-01-11T01:26:28;-8.30;99.90
9790;DHT22;4934;50.852;8.098;2024-01-11T01:28:53;-8.40;99.90
9790;DHT22;4934;50.852;8.098;2024-01-11T01:31:20;-8.40;99.90
9790;DHT22;4934;50.852;8.098;2024-01-11T01:33:46;-8.40;99.90
9790;DHT22;4934;50.852;8.098;2024-01-11T01:36:12;-8.50;99.90
9790;DHT22;4934;50.852;8.098;2024-01-11T01:38:37;-8.40;99.90
9790;DHT22;4934;50.852;8.098;2024-01-11T01:41:03;-8.30;99.90
9790;DHT22;4934;50.852;8.098;2024-01-11T01:43:28;-8.30;99.90
9790;DHT22;4934;50.852;8.098;2024-01-11T01:45:54;-8.20;99.90
9790;DHT22;4934;50.852;8.098;2024-01-11T01:48:20;-8.20;99.90
9790;DHT22;4934;50.852;8.098;2024-01-11T01:50:47;-8.30;99.90
9790;DHT22;4934;50.852;8.098;2024-01-11T01:53:21;-8.40;99.90
9790;DHT22;4934;50.852;8.098;2024-01-11T01:55:48;-8.50;99.90
9790;DHT22;4934;50.852;8.098;2024-01-11T01:58:15;-8.50;99.90
9790;DHT22;4934;50.852;8.098;2024-01-11T02:00:44;-8.60;99.90
9790;DHT22;4934;50.852;8.098;2024-01-11T02:03:10;-8.60;99.90
9790;DHT22;4934;50.852;8.098;2024-01-11T02:05:36;-8.70;99.90
9790;DHT22;4934;50.852;8.098;2024-01-11T02:08:03;-8.70;99.90
9790;DHT22;4934;50.852;8.098;2024-01-11T02:10:34;-8.50;99.90
9790;DHT22;4934;50.852;8.098;2024-01-11T02:13:01;-8.60;99.90
9790;DHT22;4934;50.852;8.098;2024-01-11T02:15:26;-8.70;99.90
9790;DHT22;4934;50.852;8.098;2024-01-11T02:17:52;-8.80;99.90
9790;DHT22;4934;50.852;8.098;2024-01-11T02:20:18;-8.80;99.90
9790;DHT22;4934;50.852;8.098;2024-01-11T02:22:47;-8.80;99.90
9790;DHT22;4934;50.852;8.098;2024-01-11T02:25:15;-8.90;99.90
9790;DHT22;4934;50.852;8.098;2024-01-11T02:27:48;-8.80;99.90
9790;DHT22;4934;50.852;8.098;2024-01-11T02:30:14;-8.90;99.90
9790;DHT22;4934;50.852;8.098;2024-01-11T02:32:41;-8.90;99.90
9790;DHT22;4934;50.852;8.098;2024-01-11T02:35:08;-8.90;99.90
9790;DHT22;4934;50.852;8.098;2024-01-11T02:37:34;-8.90;99.90
9790;DHT22;4934;50.852;8.098;2024-01-11T02:40:01;-8.90;99.90
9790;DHT22;4934;50.852;8.098;2024-01-11T02:42:28;-8.90;99.90
9790;DHT22;4934;50.852;8.098;2024-01-11T02:44:53;-8.90;99.90
9790;DHT22;4934;50.852;8.098;2024-01-11T02:47:19;-8.90;99.90
9790;DHT22;4934;50.852;8.098;2024-01-11T02:49:45;-8.80;99.90
9790;DHT22;4934;50.852;8.098;2024-01-11T02:52:10;-8.80;99.90
9790;DHT22;4934;50.852;8.098;2024-01-11T02:54:36;-8.80;99.90
9790;DHT22;4934;50.852;8.098;2024-01-11T02:57:01;-8.80;99.90
9790;DHT22;4934;50.852;8.098;2024-01-11T02:59:27;-8.90;99.90
9790;DHT22;4934;50.852;8.098;2024-01-11T03:01:52;-9.00;99.90
9790;DHT22;4934;50.852;8.098;2024-01-11T03:04:18;-9.10;99.90
9790;DHT22;4934;50.852;8.098;2024-01-11T03:06:44;-9.00;99.90
9790;DHT22;4934;50.852;8.098;2024-01-11T03:09:09;-9.00;99.90
9790;DHT22;4934;50.852;8.098;2024-01-11T03:11:35;-9.00;99.90
9790;DHT22;4934;50.852;8.098;2024-01-11T03:14:00;-9.00;99.90
9790;DHT22;4934;50.852;8.098;2024-01-11T03:16:26;-9.00;99.90
9790;DHT22;4934;50.852;8.098;2024-01-11T03:18:52;-9.10;99.90
9790;DHT22;4934;50.852;8.098;2024-01-11T03:21:17;-9.00;99.90
9790;DHT22;4934;50.852;8.098;2024-01-11T03:23:43;-8.90;99.90
9790;DHT22;4934;50.852;8.098;2024-01-11T03:26:27;-9.00;99.90
9790;DHT22;4934;50.852;8.098;2024-01-11T03:28:53;-9.00;99.90
9790;DHT22;4934;50.852;8.098;2024-01-11T03:31:19;-9.10;99.90
9790;DHT22;4934;50.852;8.098;2024-01-11T03:33:45;-9.00;99.90
9790;DHT22;4934;50.852;8.098;2024-01-11T03:36:11;-9.00;99.90
9790;DHT22;4934;50.852;8.098;2024-01-11T03:38:37;-8.90;99.90
9790;DHT22;4934;50.852;8.098;2024-01-11T03:41:08;-9.00;99.90
9790;DHT22;4934;50.852;8.098;2024-01-11T03:43:34;-9.00;99.90
9790;DHT22;4934;50.852;8.098;2024-01-11T03:46:00;-9.10;99.90
9790;DHT22;4934;50.852;8.098;2024-01-11T03:48:26;-9.20;99.90
9790;DHT22;4934;50.852;8.098;2024-01-11T03:50:51;-9.30;99.90
9790;DHT22;4934;50.852;8.098;2024-01-11T03:53:17;-9.30;99.90
9790;DHT22;4934;50.852;8.098;2024-01-11T03:55:42;-9.30;99.90
9790;DHT22;4934;50.852;8.098;2024-01-11T03:58:08;-9.40;99.90
9790;DHT22;4934;50.852;8.098;2024-01-11T04:00:33;-9.40;99.90
9790;DHT22;4934;50.852;8.098;2024-01-11T04:02:59;-9.30;99.90
9790;DHT22;4934;50.852;8.098;2024-01-11T04:05:24;-9.20;99.90
9790;DHT22;4934;50.852;8.098;2024-01-11T04:07:50;-9.20;99.90
9790;DHT22;4934;50.852;8.098;2024-01-11T04:10:17;-9.10;99.90
9790;DHT22;4934;50.852;8.098;2024-01-11T04:12:43;-9.20;99.90
9790;DHT22;4934;50.852;8.098;2024-01-11T04:15:11;-9.30;99.90
9790;DHT22;4934;50.852;8.098;2024-01-11T04:17:38;-9.30;99.90
9790;DHT22;4934;50.852;8.098;2024-01-11T04:20:05;-9.40;99.90
9790;DHT22;4934;50.852;8.098;2024-01-11T04:22:31;-9.50;99.90
9790;DHT22;4934;50.852;8.098;2024-01-11T04:24:56;-9.50;99.90
9790;DHT22;4934;50.852;8.098;2024-01-11T04:27:22;-9.50;99.90
9790;DHT22;4934;50.852;8.098;2024-01-11T04:29:47;-9.30;99.90
9790;DHT22;4934;50.852;8.098;2024-01-11T04:32:13;-9.20;99.90
9790;DHT22;4934;50.852;8.098;2024-01-11T04:34:38;-9.40;99.90
9790;DHT22;4934;50.852;8.098;2024-01-11T04:37:04;-9.40;99.90
9790;DHT22;4934;50.852;8.098;2024-01-11T04:39:29;-9.40;99.90
9790;DHT22;4934;50.852;8.098;2024-01-11T04:41:56;-9.40;99.90
9790;DHT22;4934;50.852;8.098;2024-01-11T04:44:21;-9.50;99.90
9790;DHT22;4934;50.852;8.098;2024-01-11T04:46:47;-9.50;99.90
9790;DHT22;4934;50.852;8.098;2024-01-11T04:49:13;-9.60;99.90
9790;DHT22;4934;50.852;8.098;2024-01-11T04:51:42;-9.60;99.90
9790;DHT22;4934;50.852;8.098;2024-01-11T04:54:08;-9.70;99.90
9790;DHT22;4934;50.852;8.098;2024-01-11T04:56:34;-9.60;99.90
9790;DHT22;4934;50.852;8.098;2024-01-11T04:58:59;-9.50;99.90
9790;DHT22;4934;50.852;8.098;2024-01-11T05:01:25;-9.50;99.90
9790;DHT22;4934;50.852;8.098;2024-01-11T05:03:50;-9.60;99.90
9790;DHT22;4934;50.852;8.098;2024-01-11T05:06:20;-9.60;99.90
9790;DHT22;4934;50.852;8.098;2024-01-11T05:08:48;-9.70;99.90
9790;DHT22;4934;50.852;8.098;2024-01-11T05:11:21;-9.80;99.90
9790;DHT22;4934;50.852;8.098;2024-01-11T05:13:47;-9.90;99.90
9790;DHT22;4934;50.852;8.098;2024-01-11T05:16:27;-9.80;99.90
9790;DHT22;4934;50.852;8.098;2024-01-11T05:18:54;-9.90;99.90
9790;DHT22;4934;50.852;8.098;2024-01-11T05:21:20;-9.80;99.90
9790;DHT22;4934;50.852;8.098;2024-01-11T05:23:46;-9.70;99.90
9790;DHT22;4934;50.852;8.098;2024-01-11T05:26:14;-9.80;99.90
9790;DHT22;4934;50.852;8.098;2024-01-11T05:28:51;-9.80;99.90
9790;DHT22;4934;50.852;8.098;2024-01-11T05:31:17;-9.80;99.90
9790;DHT22;4934;50.852;8.098;2024-01-11T05:33:43;-9.90;99.90
9790;DHT22;4934;50.852;8.098;2024-01-11T05:36:08;-9.90;99.90
9790;DHT22;4934;50.852;8.098;2024-01-11T05:38:34;-9.90;99.90
9790;DHT22;4934;50.852;8.098;2024-01-11T05:41:01;-9.90;99.90
9790;DHT22;4934;50.852;8.098;2024-01-11T05:43:27;-10.00;99.90
9790;DHT22;4934;50.852;8.098;2024-01-11T05:45:52;-9.90;99.90
9790;DHT22;4934;50.852;8.098;2024-01-11T05:48:18;-9.90;99.90
9790;DHT22;4934;50.852;8.098;2024-01-11T05:50:44;-10.00;99.90
9790;DHT22;4934;50.852;8.098;2024-01-11T05:53:10;-10.00;99.90
9790;DHT22;4934;50.852;8.098;2024-01-11T05:55:36;-10.10;99.90
9790;DHT22;4934;50.852;8.098;2024-01-11T05:58:02;-10.00;99.90
9790;DHT22;4934;50.852;8.098;2024-01-11T06:00:27;-10.10;99.90
9790;DHT22;4934;50.852;8.098;2024-01-11T06:02:53;-10.10;99.90
9790;DHT22;4934;50.852;8.098;2024-01-11T06:05:18;-10.10;99.90
9790;DHT22;4934;50.852;8.098;2024-01-11T06:07:44;-10.10;99.90
9790;DHT22;4934;50.852;8.098;2024-01-11T06:10:10;-10.10;99.90
9790;DHT22;4934;50.852;8.098;2024-01-11T06:12:35;-10.10;99.90
9790;DHT22;4934;50.852;8.098;2024-01-11T06:15:01;-10.20;99.90
9790;DHT22;4934;50.852;8.098;2024-01-11T06:17:27;-10.10;99.90
9790;DHT22;4934;50.852;8.098;2024-01-11T06:19:53;-10.10;99.90
9790;DHT22;4934;50.852;8.098;2024-01-11T06:22:18;-10.10;99.90
9790;DHT22;4934;50.852;8.098;2024-01-11T06:24:44;-10.10;99.90
9790;DHT22;4934;50.852;8.098;2024-01-11T06:27:10;-10.20;99.90
9790;DHT22;4934;50.852;8.098;2024-01-11T06:29:35;-10.20;99.90
9790;DHT22;4934;50.852;8.098;2024-01-11T06:32:01;-10.20;99.90
9790;DHT22;4934;50.852;8.098;2024-01-11T06:34:27;-10.30;99.90
9790;DHT22;4934;50.852;8.098;2024-01-11T06:36:54;-10.10;99.90
9790;DHT22;4934;50.852;8.098;2024-01-11T06:39:20;-10.10;99.90
9790;DHT22;4934;50.852;8.098;2024-01-11T06:41:45;-10.10;99.90
9790;DHT22;4934;50.852;8.098;2024-01-11T06:44:11;-10.20;99.90
9790;DHT22;4934;50.852;8.098;2024-01-11T06:46:36;-10.30;99.90
9790;DHT22;4934;50.852;8.098;2024-01-11T06:49:04;-10.30;99.90
9790;DHT22;4934;50.852;8.098;2024-01-11T06:51:30;-10.40;99.90
9790;DHT22;4934;50.852;8.098;2024-01-11T06:53:55;-10.40;99.90
9790;DHT22;4934;50.852;8.098;2024-01-11T06:56:24;-10.40;99.90
9790;DHT22;4934;50.852;8.098;2024-01-11T06:58:50;-10.40;99.90
9790;DHT22;4934;50.852;8.098;2024-01-11T07:01:15;-10.40;99.90
9790;DHT22;4934;50.852;8.098;2024-01-11T07:03:41;-10.40;99.90
9790;DHT22;4934;50.852;8.098;2024-01-11T07:06:07;-10.40;99.90
9790;DHT22;4934;50.852;8.098;2024-01-11T07:08:32;-10.40;99.90
9790;DHT22;4934;50.852;8.098;2024-01-11T07:11:00;-10.40;99.90
9790;DHT22;4934;50.852;8.098;2024-01-11T07:13:26;-10.40;99.90
9790;DHT22;4934;50.852;8.098;2024-01-11T07:15:51;-10.50;99.90
9790;DHT22;4934;50.852;8.098;2024-01-11T07:18:17;-10.50;99.90
9790;DHT22;4934;50.852;8.098;2024-01-11T07:20:44;-10.50;99.90
9790;DHT22;4934;50.852;8.098;2024-01-11T07:23:09;-10.50;99.90
9790;DHT22;4934;50.852;8.098;2024-01-11T07:25:35;-10.50;99.90
9790;DHT22;4934;50.852;8.098;2024-01-11T07:28:01;-10.40;99.90
9790;DHT22;4934;50.852;8.098;2024-01-11T07:30:27;-10.40;99.90
9790;DHT22;4934;50.852;8.098;2024-01-11T07:32:53;-10.50;99.90
9790;DHT22;4934;50.852;8.098;2024-01-11T07:35:19;-10.50;99.90
9790;DHT22;4934;50.852;8.098;2024-01-11T07:37:45;-10.40;99.90
9790;DHT22;4934;50.852;8.098;2024-01-11T07:40:11;-10.40;99.90
9790;DHT22;4934;50.852;8.098;2024-01-11T07:42:40;-10.30;99.90
9790;DHT22;4934;50.852;8.098;2024-01-11T07:45:07;-10.30;99.90
9790;DHT22;4934;50.852;8.098;2024-01-11T07:47:33;-10.20;99.90
9790;DHT22;4934;50.852;8.098;2024-01-11T07:49:59;-10.30;99.90
9790;DHT22;4934;50.852;8.098;2024-01-11T07:52:24;-10.20;99.90
9790;DHT22;4934;50.852;8.098;2024-01-11T07:54:50;-10.20;99.90
9790;DHT22;4934;50.852;8.098;2024-01-11T07:57:15;-10.10;99.90
9790;DHT22;4934;50.852;8.098;2024-01-11T07:59:41;-9.90;99.90
9790;DHT22;4934;50.852;8.098;2024-01-11T08:02:07;-10.00;99.90
9790;DHT22;4934;50.852;8.098;2024-01-11T08:04:33;-10.00;99.90
9790;DHT22;4934;50.852;8.098;2024-01-11T08:06:58;-10.00;99.90
9790;DHT22;4934;50.852;8.098;2024-01-11T08:09:28;-10.00;99.90
9790;DHT22;4934;50.852;8.098;2024-01-11T08:11:53;-10.00;99.90
9790;DHT22;4934;50.852;8.098;2024-01-11T08:14:20;-10.00;99.90
9790;DHT22;4934;50.852;8.098;2024-01-11T08:16:46;-9.90;99.90
9790;DHT22;4934;50.852;8.098;2024-01-11T08:19:12;-9.90;99.90
9790;DHT22;4934;50.852;8.098;2024-01-11T08:21:40;-9.80;99.90
9790;DHT22;4934;50.852;8.098;2024-01-11T08:24:07;-9.70;99.90
9790;DHT22;4934;50.852;8.098;2024-01-11T08:26:32;-9.80;99.90
9790;DHT22;4934;50.852;8.098;2024-01-11T08:28:58;-9.70;99.90
9790;DHT22;4934;50.852;8.098;2024-01-11T08:31:23;-9.70;99.90
9790;DHT22;4934;50.852;8.098;2024-01-11T08:33:49;-9.70;99.90
9790;DHT22;4934;50.852;8.098;2024-01-11T08:36:16;-9.60;99.90
9790;DHT22;4934;50.852;8.098;2024-01-11T08:38:41;-9.50;99.90
9790;DHT22;4934;50.852;8.098;2024-01-11T08:41:07;-9.40;99.90
9790;DHT22;4934;50.852;8.098;2024-01-11T08:43:32;-9.30;99.90
9790;DHT22;4934;50.852;8.098;2024-01-11T08:45:58;-9.30;99.90
9790;DHT22;4934;50.852;8.098;2024-01-11T08:48:25;-9.10;99.90
9790;DHT22;4934;50.852;8.098;2024-01-11T08:50:50;-9.00;99.90
9790;DHT22;4934;50.852;8.098;2024-01-11T08:53:16;-9.00;99.90
9790;DHT22;4934;50.852;8.098;2024-01-11T08:55:42;-9.00;99.90
9790;DHT22;4934;50.852;8.098;2024-01-11T08:58:08;-8.90;99.90
9790;DHT22;4934;50.852;8.098;2024-01-11T09:00:34;-8.90;99.90
9790;DHT22;4934;50.852;8.098;2024-01-11T09:02:59;-8.80;99.90
9790;DHT22;4934;50.852;8.098;2024-01-11T09:05:25;-8.70;99.90
9790;DHT22;4934;50.852;8.098;2024-01-11T09:07:50;-8.60;99.90
9790;DHT22;4934;50.852;8.098;2024-01-11T09:10:16;-8.50;99.90
9790;DHT22;4934;50.852;8.098;2024-01-11T09:12:42;-8.40;99.90
9790;DHT22;4934;50.852;8.098;2024-01-11T09:15:08;-8.40;99.90
9790;DHT22;4934;50.852;8.098;2024-01-11T09:17:33;-8.30;99.90
9790;DHT22;4934;50.852;8.098;2024-01-11T09:19:59;-8.20;99.90
9790;DHT22;4934;50.852;8.098;2024-01-11T09:22:24;-8.10;99.90
9790;DHT22;4934;50.852;8.098;2024-01-11T09:24:51;-8.10;99.90
9790;DHT22;4934;50.852;8.098;2024-01-11T09:27:17;-8.00;99.90
9790;DHT22;4934;50.852;8.098;2024-01-11T09:29:46;-7.90;99.90
9790;DHT22;4934;50.852;8.098;2024-01-11T09:32:14;-7.70;99.90
9790;DHT22;4934;50.852;8.098;2024-01-11T09:34:40;-7.60;99.90
9790;DHT22;4934;50.852;8.098;2024-01-11T09:37:05;-7.50;99.90
9790;DHT22;4934;50.852;8.098;2024-01-11T09:39:31;-7.30;99.90
9790;DHT22;4934;50.852;8.098;2024-01-11T09:42:09;-7.20;99.90
9790;DHT22;4934;50.852;8.098;2024-01-11T09:44:36;-7.10;99.90
9790;DHT22;4934;50.852;8.098;2024-01-11T09:47:03;-7.00;99.90
9790;DHT22;4934;50.852;8.098;2024-01-11T09:49:31;-6.90;99.90
9790;DHT22;4934;50.852;8.098;2024-01-11T09:51:57;-6.80;99.90
9790;DHT22;4934;50.852;8.098;2024-01-11T09:54:28;-6.60;99.90
9790;DHT22;4934;50.852;8.098;2024-01-11T09:56:54;-6.50;99.90
9790;DHT22;4934;50.852;8.098;2024-01-11T09:59:24;-6.50;99.90
9790;DHT22;4934;50.852;8.098;2024-01-11T10:01:50;-6.30;99.90
9790;DHT22;4934;50.852;8.098;2024-01-11T10:04:16;-6.20;99.90
9790;DHT22;4934;50.852;8.098;2024-01-11T10:06:43;-6.00;99.90
9790;DHT22;4934;50.852;8.098;2024-01-11T10:09:09;-5.90;99.90
9790;DHT22;4934;50.852;8.098;2024-01-11T10:11:35;-5.80;99.90
9790;DHT22;4934;50.852;8.098;2024-01-11T10:14:01;-5.60;99.90
9790;DHT22;4934;50.852;8.098;2024-01-11T10:16:29;-5.50;99.90
9790;DHT22;4934;50.852;8.098;2024-01-11T10:18:55;-5.40;99.90
9790;DHT22;4934;50.852;8.098;2024-01-11T10:21:22;-5.30;99.90
9790;DHT22;4934;50.852;8.098;2024-01-11T10:23:49;-5.20;99.90
9790;DHT22;4934;50.852;8.098;2024-01-11T10:26:16;-5.10;99.90
9790;DHT22;4934;50.852;8.098;2024-01-11T10:28:46;-5.00;99.90
9790;DHT22;4934;50.852;8.098;2024-01-11T10:31:12;-4.80;99.90
9790;DHT22;4934;50.852;8.098;2024-01-11T10:33:40;-4.80;99.90
9790;DHT22;4934;50.852;8.098;2024-01-11T10:36:06;-4.60;99.90
9790;DHT22;4934;50.852;8.098;2024-01-11T10:38:35;-4.50;99.90
9790;DHT22;4934;50.852;8.098;2024-01-11T10:41:05;-4.40;99.90
9790;DHT22;4934;50.852;8.098;2024-01-11T10:43:32;-4.20;99.90
9790;DHT22;4934;50.852;8.098;2024-01-11T10:46:00;-4.10;99.90
9790;DHT22;4934;50.852;8.098;2024-01-11T10:48:30;-4.00;99.90
9790;DHT22;4934;50.852;8.098;2024-01-11T10:51:00;-3.90;99.90
9790;DHT22;4934;50.852;8.098;2024-01-11T10:56:03;-3.60;99.90
9790;DHT22;4934;50.852;8.098;2024-01-11T10:58:30;-3.50;99.90
9790;DHT22;4934;50.852;8.098;2024-01-11T11:00:57;-3.40;99.90
9790;DHT22;4934;50.852;8.098;2024-01-11T11:03:25;-3.30;99.90
9790;DHT22;4934;50.852;8.098;2024-01-11T11:05:53;-3.10;99.90
9790;DHT22;4934;50.852;8.098;2024-01-11T11:08:22;-3.00;99.90
9790;DHT22;4934;50.852;8.098;2024-01-11T11:10:49;-2.90;99.90
9790;DHT22;4934;50.852;8.098;2024-01-11T11:13:17;-2.80;99.90
9790;DHT22;4934;50.852;8.098;2024-01-11T11:15:47;-2.70;99.90
9790;DHT22;4934;50.852;8.098;2024-01-11T11:18:14;-2.60;99.90
9790;DHT22;4934;50.852;8.098;2024-01-11T11:20:40;-2.50;99.90
9790;DHT22;4934;50.852;8.098;2024-01-11T11:23:10;-2.40;99.90
9790;DHT22;4934;50.852;8.098;2024-01-11T11:25:36;-2.20;99.90
9790;DHT22;4934;50.852;8.098;2024-01-11T11:28:03;-2.10;99.90
9790;DHT22;4934;50.852;8.098;2024-01-11T11:30:33;-2.00;99.90
9790;DHT22;4934;50.852;8.098;2024-01-11T11:33:19;-1.90;99.90
9790;DHT22;4934;50.852;8.098;2024-01-11T11:35:51;-1.80;99.90
9790;DHT22;4934;50.852;8.098;2024-01-11T11:38:21;-1.70;99.90
9790;DHT22;4934;50.852;8.098;2024-01-11T11:40:48;-1.60;99.90
9790;DHT22;4934;50.852;8.098;2024-01-11T11:43:18;-1.50;99.90
9790;DHT22;4934;50.852;8.098;2024-01-11T11:45:46;-1.50;99.90
9790;DHT22;4934;50.852;8.098;2024-01-11T11:51:11;-1.10;99.90
9790;DHT22;4934;50.852;8.098;2024-01-11T11:53:38;-1.00;92.80
9790;DHT22;4934;50.852;8.098;2024-01-11T11:56:04;-0.80;90.10
9790;DHT22;4934;50.852;8.098;2024-01-11T11:58:31;-0.70;90.10
9790;DHT22;4934;50.852;8.098;2024-01-11T12:01:01;-0.60;82.50
9790;DHT22;4934;50.852;8.098;2024-01-11T12:03:35;-0.40;77.50
9790;DHT22;4934;50.852;8.098;2024-01-11T12:06:05;-0.40;77.80
9790;DHT22;4934;50.852;8.098;2024-01-11T12:08:32;-0.30;79.80
9790;DHT22;4934;50.852;8.098;2024-01-11T12:10:58;-0.20;81.40
9790;DHT22;4934;50.852;8.098;2024-01-11T12:13:24;-0.10;82.80
9790;DHT22;4934;50.852;8.098;2024-01-11T12:15:50;0.00;73.80
9790;DHT22;4934;50.852;8.098;2024-01-11T12:18:16;0.10;76.60
9790;DHT22;4934;50.852;8.098;2024-01-11T12:20:42;0.20;76.40
9790;DHT22;4934;50.852;8.098;2024-01-11T12:23:07;0.30;77.10
9790;DHT22;4934;50.852;8.098;2024-01-11T12:25:33;0.40;77.80
9790;DHT22;4934;50.852;8.098;2024-01-11T12:27:59;0.50;79.10
9790;DHT22;4934;50.852;8.098;2024-01-11T12:30:26;0.50;79.70
9790;DHT22;4934;50.852;8.098;2024-01-11T12:32:55;0.60;79.90
9790;DHT22;4934;50.852;8.098;2024-01-11T12:35:21;0.70;77.80
9790;DHT22;4934;50.852;8.098;2024-01-11T12:37:58;0.80;77.70
9790;DHT22;4934;50.852;8.098;2024-01-11T12:40:25;0.90;75.60
9790;DHT22;4934;50.852;8.098;2024-01-11T12:42:52;0.90;70.20
9790;DHT22;4934;50.852;8.098;2024-01-11T12:45:19;1.00;66.90
9790;DHT22;4934;50.852;8.098;2024-01-11T12:47:45;1.20;60.70
9790;DHT22;4934;50.852;8.098;2024-01-11T12:50:12;1.30;56.00
9790;DHT22;4934;50.852;8.098;2024-01-11T12:52:41;1.40;55.50
9790;DHT22;4934;50.852;8.098;2024-01-11T12:55:08;1.50;55.00
9790;DHT22;4934;50.852;8.098;2024-01-11T12:57:43;1.50;55.10
9790;DHT22;4934;50.852;8.098;2024-01-11T13:00:13;1.70;52.90
9790;DHT22;4934;50.852;8.098;2024-01-11T13:02:39;1.80;51.50
9790;DHT22;4934;50.852;8.098;2024-01-11T13:05:05;1.80;51.10
9790;DHT22;4934;50.852;8.098;2024-01-11T13:07:32;1.90;51.80
9790;DHT22;4934;50.852;8.098;2024-01-11T13:09:59;2.00;51.40
9790;DHT22;4934;50.852;8.098;2024-01-11T13:12:25;2.10;51.20
9790;DHT22;4934;50.852;8.098;2024-01-11T13:14:50;2.20;51.30
9790;DHT22;4934;50.852;8.098;2024-01-11T13:17:18;2.20;50.80
9790;DHT22;4934;50.852;8.098;2024-01-11T13:19:44;2.30;51.40
9790;DHT22;4934;50.852;8.098;2024-01-11T13:22:10;2.30;51.10
9790;DHT22;4934;50.852;8.098;2024-01-11T13:24:36;2.30;51.30
9790;DHT22;4934;50.852;8.098;2024-01-11T13:27:01;2.30;52.10
9790;DHT22;4934;50.852;8.098;2024-01-11T13:29:27;2.30;55.10
9790;DHT22;4934;50.852;8.098;2024-01-11T13:31:53;2.30;55.10
9790;DHT22;4934;50.852;8.098;2024-01-11T13:34:18;2.30;54.90
9790;DHT22;4934;50.852;8.098;2024-01-11T13:36:44;2.40;55.80
9790;DHT22;4934;50.852;8.098;2024-01-11T13:39:10;2.40;52.40
9790;DHT22;4934;50.852;8.098;2024-01-11T13:41:36;2.50;52.10
9790;DHT22;4934;50.852;8.098;2024-01-11T13:44:02;2.50;47.00
9790;DHT22;4934;50.852;8.098;2024-01-11T13:46:31;2.60;46.80
9790;DHT22;4934;50.852;8.098;2024-01-11T13:48:56;2.70;44.30
9790;DHT22;4934;50.852;8.098;2024-01-11T13:51:22;2.80;42.60
9790;DHT22;4934;50.852;8.098;2024-01-11T13:53:48;2.90;42.60
9790;DHT22;4934;50.852;8.098;2024-01-11T13:56:13;2.90;41.40
9790;DHT22;4934;50.852;8.098;2024-01-11T13:58:39;2.90;43.40
9790;DHT22;4934;50.852;8.098;2024-01-11T14:01:05;2.90;45.20
9790;DHT22;4934;50.852;8.098;2024-01-11T14:03:30;3.00;44.80
9790;DHT22;4934;50.852;8.098;2024-01-11T14:05:56;2.90;47.40
9790;DHT22;4934;50.852;8.098;2024-01-11T14:08:22;2.90;46.80
9790;DHT22;4934;50.852;8.098;2024-01-11T14:10:47;2.90;43.20
9790;DHT22;4934;50.852;8.098;2024-01-11T14:13:13;3.00;42.60
9790;DHT22;4934;50.852;8.098;2024-01-11T14:15:38;2.90;43.50
9790;DHT22;4934;50.852;8.098;2024-01-11T14:18:06;3.00;44.00
9790;DHT22;4934;50.852;8.098;2024-01-11T14:20:32;3.00;45.70
9790;DHT22;4934;50.852;8.098;2024-01-11T14:22:59;3.00;45.50
9790;DHT22;4934;50.852;8.098;2024-01-11T14:25:25;3.00;44.70
9790;DHT22;4934;50.852;8.098;2024-01-11T14:27:50;3.00;42.80
9790;DHT22;4934;50.852;8.098;2024-01-11T14:30:16;3.00;43.60
9790;DHT22;4934;50.852;8.098;2024-01-11T14:32:42;3.00;39.90
9790;DHT22;4934;50.852;8.098;2024-01-11T14:35:09;3.10;41.00
9790;DHT22;4934;50.852;8.098;2024-01-11T14:37:37;3.10;40.60
9790;DHT22;4934;50.852;8.098;2024-01-11T14:40:06;3.00;41.80
9790;DHT22;4934;50.852;8.098;2024-01-11T14:42:32;3.10;42.40
9790;DHT22;4934;50.852;8.098;2024-01-11T14:44:59;3.00;41.70
9790;DHT22;4934;50.852;8.098;2024-01-11T14:47:24;3.00;42.00
9790;DHT22;4934;50.852;8.098;2024-01-11T14:49:51;3.00;43.10
9790;DHT22;4934;50.852;8.098;2024-01-11T14:52:17;2.80;45.20
9790;DHT22;4934;50.852;8.098;2024-01-11T14:54:44;2.80;44.50
9790;DHT22;4934;50.852;8.098;2024-01-11T14:57:10;2.80;39.00
9790;DHT22;4934;50.852;8.098;2024-01-11T14:59:36;2.90;39.00
9790;DHT22;4934;50.852;8.098;2024-01-11T15:02:01;2.90;38.80
9790;DHT22;4934;50.852;8.098;2024-01-11T15:04:28;2.80;35.60
9790;DHT22;4934;50.852;8.098;2024-01-11T15:06:53;2.80;35.80
9790;DHT22;4934;50.852;8.098;2024-01-11T15:09:19;2.80;37.10
9790;DHT22;4934;50.852;8.098;2024-01-11T15:11:44;2.80;33.90
9790;DHT22;4934;50.852;8.098;2024-01-11T15:14:10;2.90;32.50
9790;DHT22;4934;50.852;8.098;2024-01-11T15:16:36;2.90;31.10
9790;DHT22;4934;50.852;8.098;2024-01-11T15:19:02;2.90;29.00
9790;DHT22;4934;50.852;8.098;2024-01-11T15:21:28;2.90;29.20
9790;DHT22;4934;50.852;8.098;2024-01-11T15:23:54;2.80;28.80
9790;DHT22;4934;50.852;8.098;2024-01-11T15:26:20;2.80;28.40
9790;DHT22;4934;50.852;8.098;2024-01-11T15:28:46;2.70;29.10
9790;DHT22;4934;50.852;8.098;2024-01-11T15:31:13;2.70;29.30
9790;DHT22;4934;50.852;8.098;2024-01-11T15:33:39;2.60;29.20
9790;DHT22;4934;50.852;8.098;2024-01-11T15:36:05;2.60;29.80
9790;DHT22;4934;50.852;8.098;2024-01-11T15:38:31;2.60;30.30
9790;DHT22;4934;50.852;8.098;2024-01-11T15:40:57;2.60;30.40
9790;DHT22;4934;50.852;8.098;2024-01-11T15:43:22;2.60;31.50
9790;DHT22;4934;50.852;8.098;2024-01-11T15:45:49;2.50;31.60
9790;DHT22;4934;50.852;8.098;2024-01-11T15:48:15;2.40;32.40
9790;DHT22;4934;50.852;8.098;2024-01-11T15:50:41;2.20;33.00
9790;DHT22;4934;50.852;8.098;2024-01-11T15:53:06;2.20;34.00
9790;DHT22;4934;50.852;8.098;2024-01-11T15:55:33;2.10;33.70
9790;DHT22;4934;50.852;8.098;2024-01-11T15:57:59;2.10;33.00
9790;DHT22;4934;50.852;8.098;2024-01-11T16:00:26;2.00;34.10
9790;DHT22;4934;50.852;8.098;2024-01-11T16:02:52;1.90;34.90